1884 NOT_NAMED (1884081S10092)


IBTrACS version v04r00. Visit IBTrACS website for data access.
Please direct all questions to the IBTrACS Q and A forum

Storm track - Intensity - Wind Radii - Intensity Data - Source Data - All data

Summary Information

Storm ID 1884081S10092
Start Mar 21 06Z
End Mar 27 06Z
ATCF IDs
Track status Best track data.

Storm track plot

Map of storm track

Intensity plots

No Intensity information for this storm


Radial wind information

No radial wind information for this storm


Position and Intensity Table

BASIN ISO_TIME_________ NATURE LAT LON
degrees north degrees east
SI 1884-03-21 06:00:00 NR -10.30 91.80
SI 09:00:00 NR -10.33 91.70
SI 12:00:00 NR -10.36 91.59
SI 15:00:00 NR -10.40 91.47
SI 18:00:00 NR -10.44 91.33
SI 21:00:00 NR -10.49 91.17
SI 1884-03-22 00:00:00 NR -10.55 90.98
SI 03:00:00 NR -10.62 90.76
SI 06:00:00 NR -10.70 90.50
SI 09:00:00 NR -10.80 90.20
SI 12:00:00 NR -10.91 89.85
SI 15:00:00 NR -11.03 89.48
SI 18:00:00 NR -11.16 89.09
SI 21:00:00 NR -11.29 88.67
SI 1884-03-23 00:00:00 NR -11.43 88.25
SI 03:00:00 NR -11.56 87.82
SI 06:00:00 NR -11.70 87.40
SI 09:00:00 NR -11.82 87.01
SI 12:00:00 NR -11.94 86.62
SI 15:00:00 NR -12.06 86.23
SI 18:00:00 NR -12.18 85.84
SI 21:00:00 NR -12.31 85.45
SI 1884-03-24 00:00:00 NR -12.44 85.07
SI 03:00:00 NR -12.57 84.68
SI 06:00:00 NR -12.70 84.30
SI 09:00:00 NR -12.83 83.92
SI 12:00:00 NR -12.97 83.55
SI 15:00:00 NR -13.11 83.17
SI 18:00:00 NR -13.25 82.80
SI 21:00:00 NR -13.40 82.43
SI 1884-03-25 00:00:00 NR -13.56 82.05
SI 03:00:00 NR -13.73 81.68
SI 06:00:00 NR -13.90 81.30
SI 09:00:00 NR -14.10 80.88
SI 12:00:00 NR -14.31 80.44
SI 15:00:00 NR -14.53 80.01
SI 18:00:00 NR -14.75 79.60
SI 21:00:00 NR -14.96 79.19
SI 1884-03-26 00:00:00 NR -15.16 78.82
SI 03:00:00 NR -15.34 78.49
SI 06:00:00 NR -15.50 78.20
SI 09:00:00 NR -15.63 77.96
SI 12:00:00 NR -15.75 77.78
SI 15:00:00 NR -15.84 77.63
SI 18:00:00 NR -15.91 77.53
SI 21:00:00 NR -15.97 77.44
SI 1884-03-27 00:00:00 NR -16.02 77.38
SI 03:00:00 NR -16.06 77.34
SI 06:00:00 NR -16.10 77.30

Source Information

Agency Information
USA
TOKYO
CMA
HKO
NEWDELHI
REUNION WMO-Best-Tracks.txt:Line=1376:xxxx884202
BOM
NADI
WELLINGTON
DS824
TD9636
TD9635
NEUMANN
MLC

All available IBTrACS Data

SEASON BASIN SUBBASIN ISO_TIME_________ NATURE LAT LON WMO AGENCY DIST2LAND LANDFALL IFLAG USA SSHS REUNION LAT REUNION LON REUNION TYPE REUNION TNUM STORM SPEED STORM DIR
Year degrees north degrees east km km 1 degrees north degrees east 1 kts degrees
1884 SI WA 1884-03-21 06:00:00 NR -10.30 91.80 1242 1242 _____O________ -1 -10.30 91.80 99 9.90 2 254
1884 SI WA 09:00:00 NR -10.33 91.70 1249 1249 _____P________ -1 -10.33 91.70 99 2 253
1884 SI WA 12:00:00 NR -10.36 91.59 1265 1265 _____P________ -1 -10.36 91.59 99 2 253
1884 SI WA 15:00:00 NR -10.40 91.47 1272 1272 _____P________ -1 -10.40 91.47 99 3 253
1884 SI WA 18:00:00 NR -10.44 91.33 1287 1287 _____P________ -1 -10.44 91.33 99 3 253
1884 SI WA 21:00:00 NR -10.49 91.17 1302 1302 _____P________ -1 -10.49 91.17 99 4 253
1884 SI WA 1884-03-22 00:00:00 NR -10.55 90.98 1317 1317 _____P________ -1 -10.55 90.98 99 4 252
1884 SI WA 03:00:00 NR -10.62 90.76 1340 1340 _____P________ -1 -10.62 90.76 99 5 252
1884 SI WA 06:00:00 NR -10.70 90.50 1370 1370 _____O________ -1 -10.70 90.50 99 9.90 6 252
1884 SI WA 09:00:00 NR -10.80 90.20 1401 1401 _____P________ -1 -10.80 90.20 99 7 252
1884 SI MM 12:00:00 NR -10.91 89.85 1432 1432 _____P________ -1 -10.91 89.85 99 7 252
1884 SI MM 15:00:00 NR -11.03 89.48 1471 1471 _____P________ -1 -11.03 89.48 99 8 252
1884 SI MM 18:00:00 NR -11.16 89.09 1518 1518 _____P________ -1 -11.16 89.09 99 8 252
1884 SI MM 21:00:00 NR -11.29 88.67 1557 1557 _____P________ -1 -11.29 88.67 99 9 252
1884 SI MM 1884-03-23 00:00:00 NR -11.43 88.25 1605 1605 _____P________ -1 -11.43 88.25 99 9 252
1884 SI MM 03:00:00 NR -11.56 87.82 1652 1652 _____P________ -1 -11.56 87.82 99 9 252
1884 SI MM 06:00:00 NR -11.70 87.40 1693 1693 _____O________ -1 -11.70 87.40 99 9.90 8 252
1884 SI MM 09:00:00 NR -11.82 87.01 1733 1733 _____P________ -1 -11.82 87.01 99 8 252
1884 SI MM 12:00:00 NR -11.94 86.62 1774 1774 _____P________ -1 -11.94 86.62 99 8 252
1884 SI MM 15:00:00 NR -12.06 86.23 1822 1822 _____P________ -1 -12.06 86.23 99 8 252
1884 SI MM 18:00:00 NR -12.18 85.84 1863 1863 _____P________ -1 -12.18 85.84 99 8 252
1884 SI MM 21:00:00 NR -12.31 85.45 1896 1896 _____P________ -1 -12.31 85.45 99 8 252
1884 SI MM 1884-03-24 00:00:00 NR -12.44 85.07 1937 1937 _____P________ -1 -12.44 85.07 99 8 251
1884 SI MM 03:00:00 NR -12.57 84.68 1985 1985 _____P________ -1 -12.57 84.68 99 8 251
1884 SI MM 06:00:00 NR -12.70 84.30 2027 2027 _____O________ -1 -12.70 84.30 99 9.90 8 250
1884 SI MM 09:00:00 NR -12.83 83.92 2068 2068 _____P________ -1 -12.83 83.92 99 8 250
1884 SI MM 12:00:00 NR -12.97 83.55 2117 2117 _____P________ -1 -12.97 83.55 99 8 249
1884 SI MM 15:00:00 NR -13.11 83.17 2148 2146 _____P________ -1 -13.11 83.17 99 8 249
1884 SI MM 18:00:00 NR -13.25 82.80 2164 2162 _____P________ -1 -13.25 82.80 99 8 248
1884 SI MM 21:00:00 NR -13.40 82.43 2171 2170 _____P________ -1 -13.40 82.43 99 8 247
1884 SI MM 1884-03-25 00:00:00 NR -13.56 82.05 2190 2189 _____P________ -1 -13.56 82.05 99 8 246
1884 SI MM 03:00:00 NR -13.73 81.68 2199 2198 _____P________ -1 -13.73 81.68 99 8 245
1884 SI MM 06:00:00 NR -13.90 81.30 2219 2219 _____O________ -1 -13.90 81.30 99 9.90 9 244
1884 SI MM 09:00:00 NR -14.10 80.88 2240 2240 _____P________ -1 -14.10 80.88 99 9 244
1884 SI MM 12:00:00 NR -14.31 80.44 2263 2263 _____P________ -1 -14.31 80.44 99 9 243
1884 SI MM 15:00:00 NR -14.53 80.01 2286 2286 _____P________ -1 -14.53 80.01 99 9 242
1884 SI MM 18:00:00 NR -14.75 79.60 2310 2310 _____P________ -1 -14.75 79.60 99 9 242
1884 SI MM 21:00:00 NR -14.96 79.19 2341 2297 _____P________ -1 -14.96 79.19 99 9 241
1884 SI MM 1884-03-26 00:00:00 NR -15.16 78.82 2294 2260 _____P________ -1 -15.16 78.82 99 8 241
1884 SI MM 03:00:00 NR -15.34 78.49 2260 2222 _____P________ -1 -15.34 78.49 99 7 240
1884 SI MM 06:00:00 NR -15.50 78.20 reunion 2222 2199 _____O________ -1 -15.50 78.20 99 9.90 6 240
1884 SI MM 09:00:00 NR -15.63 77.96 2199 2175 _____P________ -1 -15.63 77.96 99 5 239
1884 SI MM 12:00:00 NR -15.75 77.78 2175 2151 _____P________ -1 -15.75 77.78 99 4 238
1884 SI MM 15:00:00 NR -15.84 77.63 2151 2138 _____P________ -1 -15.84 77.63 99 3 236
1884 SI MM 18:00:00 NR -15.91 77.53 2138 2124 _____P________ -1 -15.91 77.53 99 2 234
1884 SI MM 21:00:00 NR -15.97 77.44 2124 2124 _____P________ -1 -15.97 77.44 99 2 232
1884 SI MM 1884-03-27 00:00:00 NR -16.02 77.38 2124 2111 _____P________ -1 -16.02 77.38 99 1 228
1884 SI MM 03:00:00 NR -16.06 77.34 2111 2111 _____P________ -1 -16.06 77.34 99 1 223
1884 SI MM 06:00:00 NR -16.10 77.30 reunion 2111 _____O________ -1 -16.10 77.30 99 9.90 1 225